Enter the Airport ICAO Code

Search by Airport or City

Current Weather

LFMN | Nice Côte d'Azur Airport

Nice, Provence-Alpes-Côte d'Azur, France

Last Update 19 Minutes Ago

Light Rain

Temperature of 06 ºC

Light to Moderate Winds from NorthWest

Temperature

06 ºC

Dew Point Temperature

04 ºC

Relative Humidity

87.01 %

Wind Direction

NorthWest (320º, Without Significant Variations)

Wind Velocity

11 km/h (06 kt)

Gusts

None

Visibility

Greater than 10 Kilometers

Sea Level Pressure

0998 hPa (Hectopascals)

Layers of Clouds

30% to 60% of Sky Covered from 1097 mts (3600 ft) Above Ground Level.

60% to 90% of Sky Covered from 1402 mts (4600 ft) Above Ground Level.

METAR LFMN 052200Z 32006KT 9999 -RA SCT036 BKN046 06/04 Q0998 NOSIG

Weather Forecast

LFMN | Nice Côte d'Azur Airport

Nice, Provence-Alpes-Côte d'Azur, France

Forecast valid for the next 29 Hours

From now on it is expected:

Mostly Cloudy Sky

Moderate Winds from North

From now on it is expected 2 hours with intermittent periods of:

Light Rain

In 12 to 14 hours it is expected the begining of:

Moderate Winds from SouthWest

In 19 to 21 hours it is expected the begining of:

Moderate Winds from NorthWest

Maximum Temperature

No Data

Minimum Temperature

No Data

TAF LFMN 052000Z 0521/0703 34010KT 9999 BKN040 TEMPO 0521/0524 7000 -RA BECMG 0610/0612 24010KT BECMG 0617/0619 33010KT